Time;durP1;ratioP1;P1;durP2;ratioP2;P2;SDS_P1;SDS_P2;PMS_P1;PMS_P2;Temp;Humidity;BMP_temperature;BMP_pressure;BME280_temperature;BME280_humidity;BME280_pressure;Samples;Min_cycle;Max_cycle;Signal;HPM_P1;HPM_P2
2022/01/01 00:02:06;;;;;;;64.68;35.17;;;;;;;11.57;71.82;100138.25;5181553;28;20056;-68
2022/01/01 00:05:16;;;;;;;57.00;34.08;;;;;;;11.57;71.49;100133.78;5178099;28;20553;-68
2022/01/01 00:08:07;;;;;;;316.50;133.25;;;;;;;11.48;72.02;100130.03;5181683;28;20520;-68
2022/01/01 00:10:57;;;;;;;257.20;114.07;;;;;;;11.47;71.88;100124.88;5174868;28;20073;-69
2022/01/01 00:14:08;;;;;;;160.93;81.95;;;;;;;11.68;71.66;100143.56;5180786;28;20057;-68
2022/01/01 00:16:58;;;;;;;153.40;77.47;;;;;;;11.72;71.23;100142.31;5178371;28;20173;-68
2022/01/01 00:19:48;;;;;;;150.38;77.40;;;;;;;11.64;71.51;100152.75;5181637;28;20096;-68
2022/01/01 00:22:39;;;;;;;135.48;73.28;;;;;;;11.62;71.53;100150.22;5163857;28;20722;-68
2022/01/01 00:25:30;;;;;;;138.00;74.88;;;;;;;11.71;71.67;100156.59;5179278;28;20053;-68
2022/01/01 00:28:20;;;;;;;147.13;78.07;;;;;;;11.61;71.37;100148.50;5165268;28;20052;-68
2022/01/01 00:31:10;;;;;;;142.35;77.82;;;;;;;11.76;70.68;100155.25;5185461;28;20566;-68
2022/01/01 00:34:00;;;;;;;125.38;68.47;;;;;;;11.92;70.53;100154.03;5182887;28;20044;-68
2022/01/01 00:36:51;;;;;;;124.18;66.03;;;;;;;11.69;69.89;100106.25;5180468;28;20077;-68
2022/01/01 00:39:41;;;;;;;111.95;62.00;;;;;;;11.98;69.80;100162.38;5184623;28;20143;-68
2022/01/01 00:42:32;;;;;;;121.32;62.90;;;;;;;11.71;69.94;100132.69;5166815;28;20204;-67
2022/01/01 00:45:23;;;;;;;108.30;57.63;;;;;;;12.32;68.59;100164.13;5177582;28;20147;-67
2022/01/01 00:48:13;;;;;;;105.72;57.80;;;;;;;11.86;70.37;100162.53;5172231;28;20132;-67
2022/01/01 00:51:04;;;;;;;89.93;50.20;;;;;;;11.82;69.97;100159.25;5173033;28;20175;-68
2022/01/01 00:53:54;;;;;;;90.32;50.63;;;;;;;11.74;70.55;100159.00;5180371;28;20069;-68
2022/01/01 00:56:45;;;;;;;95.07;52.65;;;;;;;11.79;70.46;100161.28;5181755;28;20054;-67
2022/01/01 00:59:34;;;;;;;95.72;50.47;;;;;;;11.86;69.89;100152.75;5172789;28;20057;-69
2022/01/01 01:02:25;;;;;;;94.18;50.65;;;;;;;11.96;69.25;100160.81;5167067;28;20072;-69
2022/01/01 01:05:15;;;;;;;94.10;51.20;;;;;;;11.97;69.29;100166.00;5177370;28;20057;-68
2022/01/01 01:08:07;;;;;;;88.93;49.35;;;;;;;11.86;69.91;100157.22;5179793;28;20615;-68
2022/01/01 01:10:57;;;;;;;97.30;51.70;;;;;;;11.85;70.26;100161.66;5180129;28;20085;-68
2022/01/01 01:13:55;;;;;;;122.93;63.78;;;;;;;11.37;72.35;100166.41;5180885;28;20043;-68
2022/01/01 01:16:47;;;;;;;118.88;63.30;;;;;;;11.66;71.18;100164.94;5181001;28;20072;-69
2022/01/01 01:19:37;;;;;;;119.20;62.03;;;;;;;11.75;71.27;100169.53;5181579;28;20074;-68
2022/01/01 01:22:29;;;;;;;130.57;67.15;;;;;;;11.70;71.07;100152.25;5180176;28;20127;-68
2022/01/01 01:25:21;;;;;;;112.93;54.70;;;;;;;11.65;71.45;100154.41;5180888;28;20521;-68
2022/01/01 01:28:13;;;;;;;123.13;64.75;;;;;;;11.67;71.38;100153.34;5176977;28;20128;-68
2022/01/01 01:31:03;;;;;;;122.03;65.55;;;;;;;11.77;71.59;100170.22;5163466;28;20076;-68
2022/01/01 01:33:54;;;;;;;100.15;53.50;;;;;;;11.53;71.67;100138.50;5180402;28;20128;-68
2022/01/01 01:36:44;;;;;;;82.68;44.33;;;;;;;11.93;72.19;100177.03;5179648;28;20052;-68
2022/01/01 01:39:34;;;;;;;68.15;36.80;;;;;;;11.87;72.42;100172.19;5179870;28;20160;-68
2022/01/01 01:42:26;;;;;;;50.25;26.80;;;;;;;12.00;72.67;100167.56;5181217;28;20104;-68
2022/01/01 01:45:18;;;;;;;41.15;22.13;;;;;;;12.00;72.32;100170.22;5181144;28;20136;-68
2022/01/01 01:48:08;;;;;;;35.88;19.75;;;;;;;11.58;74.58;100170.00;5180988;28;20155;-68
2022/01/01 01:50:59;;;;;;;36.58;19.52;;;;;;;11.84;74.15;100169.75;5176500;28;20049;-68
2022/01/01 01:53:49;;;;;;;34.53;19.17;;;;;;;11.93;73.56;100180.50;5178383;28;20065;-68
2022/01/01 01:56:40;;;;;;;37.05;19.75;;;;;;;11.72;74.54;100176.88;5174892;28;20077;-68
2022/01/01 01:59:30;;;;;;;33.08;19.05;;;;;;;11.99;73.23;100173.88;5180841;28;20061;-68
2022/01/01 02:02:20;;;;;;;31.48;18.35;;;;;;;12.03;73.23;100185.94;5171474;28;20116;-68
2022/01/01 02:05:10;;;;;;;35.80;16.95;;;;;;;11.96;73.63;100179.44;5164597;28;20057;-68
2022/01/01 02:08:01;;;;;;;30.92;16.50;;;;;;;12.10;72.99;100179.16;5181816;28;20057;-68
2022/01/01 02:10:52;;;;;;;29.70;16.75;;;;;;;11.87;73.47;100169.53;5180440;28;20508;-67
2022/01/01 02:19:59;;;;;;;31.75;16.55;;;;;;;11.87;73.46;100173.03;5184497;28;20459;-68
2022/01/01 02:22:50;;;;;;;34.97;17.27;;;;;;;12.13;72.77;100170.09;5184772;28;20045;-68
2022/01/01 02:25:42;;;;;;;28.33;15.43;;;;;;;11.75;74.06;100169.53;5183887;28;20070;-67
2022/01/01 02:28:33;;;;;;;31.20;14.90;;;;;;;11.99;73.30;100176.53;5183932;28;20439;-68
2022/01/01 02:31:23;;;;;;;28.48;15.02;;;;;;;11.91;72.39;100160.34;5179015;28;20064;-68
2022/01/01 02:34:13;;;;;;;27.75;14.70;;;;;;;11.79;73.20;100162.16;5182052;28;20184;-68
2022/01/01 02:37:04;;;;;;;26.88;13.77;;;;;;;11.99;72.65;100161.41;5178223;28;20044;-68
2022/01/01 02:39:54;;;;;;;26.75;13.85;;;;;;;11.90;73.21;100159.50;5184217;28;20053;-68
2022/01/01 02:42:44;;;;;;;26.33;13.88;;;;;;;12.03;72.32;100164.66;5180674;28;20064;-68
2022/01/01 02:45:35;;;;;;;29.15;14.18;;;;;;;11.99;72.17;100150.78;5182623;28;20519;-69
2022/01/01 02:48:26;;;;;;;30.20;14.68;;;;;;;11.95;71.60;100141.38;5165328;28;20542;-69
2022/01/01 02:51:16;;;;;;;25.38;13.85;;;;;;;11.76;72.61;100144.63;5177196;28;20175;-69
2022/01/01 02:54:07;;;;;;;30.67;14.73;;;;;;;12.21;71.34;100163.16;5178894;28;20049;-70
2022/01/01 02:56:59;;;;;;;29.52;15.15;;;;;;;12.13;71.41;100170.09;5184296;28;20732;-70
2022/01/01 02:59:49;;;;;;;26.20;14.43;;;;;;;11.79;72.22;100154.19;5182154;28;20057;-67
2022/01/01 03:02:40;;;;;;;31.50;15.48;;;;;;;11.81;72.33;100154.03;5182932;28;20054;-66
2022/01/01 03:05:31;;;;;;;27.17;14.25;;;;;;;11.90;72.15;100142.72;5183544;28;20144;-69
2022/01/01 03:08:21;;;;;;;27.63;14.30;;;;;;;11.94;71.76;100147.66;5180524;28;20548;-70
2022/01/01 03:11:11;;;;;;;25.40;14.07;;;;;;;12.04;71.79;100161.03;5168145;28;20694;-70
2022/01/01 03:14:01;;;;;;;29.27;15.38;;;;;;;12.06;71.94;100158.28;5184553;28;20072;-70
2022/01/01 03:16:51;;;;;;;24.88;14.32;;;;;;;12.13;71.47;100160.28;5184343;28;20147;-70
2022/01/01 03:19:42;;;;;;;25.10;13.90;;;;;;;12.10;71.67;100163.19;5163356;28;20057;-69
2022/01/01 03:22:32;;;;;;;23.50;13.75;;;;;;;12.21;70.96;100154.34;5184107;28;20068;-68
2022/01/01 03:25:22;;;;;;;24.25;13.80;;;;;;;12.04;71.52;100162.84;5176657;28;20049;-69
2022/01/01 03:28:12;;;;;;;27.30;14.75;;;;;;;12.01;71.67;100161.28;5180243;28;20140;-70
2022/01/01 03:31:02;;;;;;;27.70;14.45;;;;;;;12.14;70.99;100161.97;5181697;28;20127;-69
2022/01/01 03:33:53;;;;;;;26.20;14.88;;;;;;;12.05;71.35;100162.72;5183635;28;20088;-68
2022/01/01 03:36:43;;;;;;;26.13;14.98;;;;;;;11.97;71.80;100162.50;5181927;28;20045;-70
2022/01/01 03:39:33;;;;;;;25.60;14.00;;;;;;;11.97;71.27;100160.69;5183364;28;20115;-68
2022/01/01 03:42:23;;;;;;;23.98;13.75;;;;;;;11.97;71.20;100159.84;5183615;28;20044;-70
2022/01/01 03:45:13;;;;;;;29.23;16.23;;;;;;;12.04;71.05;100161.03;5183430;28;20056;-69
2022/01/01 03:48:05;;;;;;;27.85;16.00;;;;;;;11.98;70.92;100158.88;5184034;28;20052;-69
2022/01/01 03:50:56;;;;;;;26.42;14.93;;;;;;;12.11;70.47;100148.94;5182216;28;20046;-68
2022/01/01 03:53:46;;;;;;;26.40;15.32;;;;;;;12.00;70.74;100167.56;5182648;28;20672;-70
2022/01/01 03:56:38;;;;;;;32.22;16.80;;;;;;;11.92;70.55;100136.31;5180480;28;20065;-70
2022/01/01 03:59:28;;;;;;;31.33;17.45;;;;;;;12.66;67.79;100157.66;5184003;28;20046;-69
2022/01/01 04:02:18;;;;;;;45.55;22.23;;;;;;;12.02;70.83;100168.31;5180776;28;20074;-70
2022/01/01 04:05:09;;;;;;;41.25;22.48;;;;;;;12.14;69.94;100156.66;5182874;28;20116;-69
2022/01/01 04:07:59;;;;;;;41.50;24.17;;;;;;;11.93;70.24;100159.25;5176093;28;20085;-69
2022/01/01 04:10:49;;;;;;;43.80;24.38;;;;;;;11.97;71.30;100160.69;5181754;28;20410;-69
2022/01/01 04:13:39;;;;;;;50.83;27.50;;;;;;;11.77;71.45;100162.25;5183107;28;20049;-69
2022/01/01 04:16:30;;;;;;;55.15;29.42;;;;;;;11.69;70.78;100154.06;5183058;28;20555;-68
2022/01/01 04:19:31;;;;;;;53.45;29.60;;;;;;;11.74;70.85;100159.00;5182605;28;20817;-69
2022/01/01 04:22:22;;;;;;;52.58;29.92;;;;;;;12.17;69.07;100152.91;5180238;28;20056;-69
2022/01/01 04:25:12;;;;;;;56.40;31.15;;;;;;;12.06;69.52;100148.47;5181219;28;20171;-69
2022/01/01 04:28:02;;;;;;;61.55;34.15;;;;;;;11.68;70.24;100149.69;5182789;28;20132;-68
2022/01/01 04:30:52;;;;;;;64.95;33.00;;;;;;;12.13;68.27;100131.03;5181087;28;20139;-68
2022/01/01 04:33:43;;;;;;;61.78;34.45;;;;;;;11.69;69.71;100139.94;5167823;28;20128;-69
2022/01/01 04:36:33;;;;;;;62.17;34.67;;;;;;;11.23;71.19;100135.63;5178208;28;20053;-69
2022/01/01 04:39:23;;;;;;;64.38;36.60;;;;;;;11.85;69.34;100135.09;5174809;28;20061;-70
2022/01/01 04:42:14;;;;;;;71.57;38.30;;;;;;;11.73;69.30;100131.59;5179521;28;20483;-67
2022/01/01 04:45:04;;;;;;;70.05;38.33;;;;;;;12.11;67.69;100126.81;5176005;28;20050;-69
2022/01/01 04:47:54;;;;;;;69.20;38.63;;;;;;;12.11;67.00;100129.47;5181047;28;20096;-68
2022/01/01 04:50:44;;;;;;;72.07;39.13;;;;;;;12.00;67.75;100119.72;5178387;28;20072;-68
2022/01/01 04:53:35;;;;;;;76.35;39.13;;;;;;;11.95;67.96;100127.22;5180613;28;20048;-68
2022/01/01 04:56:28;;;;;;;66.00;36.58;;;;;;;11.61;69.40;100118.44;5178445;28;20145;-68
2022/01/01 04:59:18;;;;;;;64.63;35.60;;;;;;;11.69;69.14;100135.47;5179681;28;20046;-68
2022/01/01 05:02:09;;;;;;;72.20;39.10;;;;;;;11.88;68.06;100128.69;5180411;28;20057;-68
2022/01/01 05:04:59;;;;;;;69.90;40.28;;;;;;;11.88;67.88;100126.03;5177342;28;20087;-68
2022/01/01 05:07:50;;;;;;;70.65;40.00;;;;;;;11.84;68.02;100125.44;5179218;28;20052;-68
2022/01/01 05:10:40;;;;;;;73.90;42.17;;;;;;;11.61;67.96;100113.97;5174736;28;20504;-68
2022/01/01 05:13:30;;;;;;;69.78;38.70;;;;;;;11.37;68.55;100106.16;5179634;28;20044;-68
2022/01/01 05:16:21;;;;;;;70.10;37.35;;;;;;;11.31;68.44;100135.00;5180625;28;20049;-68
2022/01/01 05:19:11;;;;;;;72.57;38.28;;;;;;;11.25;68.81;100137.16;5180768;28;20086;-68
2022/01/01 05:22:01;;;;;;;69.88;37.38;;;;;;;11.25;69.00;100149.59;5181273;28;20255;-68
2022/01/01 05:24:56;;;;;;;65.35;36.47;;;;;;;11.01;69.86;100144.41;5180058;28;20421;-68
2022/01/01 05:27:46;;;;;;;61.97;34.53;;;;;;;11.01;69.28;100147.88;5180250;28;20054;-68
2022/01/01 05:30:36;;;;;;;67.78;36.40;;;;;;;10.88;69.68;100151.59;5181096;28;20052;-68
2022/01/01 05:33:26;;;;;;;65.28;34.53;;;;;;;10.72;69.29;100144.81;5175368;28;21177;-68
2022/01/01 05:36:17;;;;;;;64.20;35.35;;;;;;;10.49;69.27;100127.97;5160222;28;20069;-68
2022/01/01 05:39:08;;;;;;;61.45;34.80;;;;;;;10.51;70.08;100151.75;5165177;28;20463;-68
2022/01/01 05:41:58;;;;;;;61.63;33.75;;;;;;;10.42;69.81;100152.44;5181174;28;20044;-68
2022/01/01 05:44:48;;;;;;;68.07;35.55;;;;;;;10.30;69.90;100152.38;5177682;28;20057;-68
2022/01/01 05:47:38;;;;;;;63.78;35.20;;;;;;;10.26;69.91;100161.50;5162322;28;20061;-68
2022/01/01 05:50:28;;;;;;;59.05;33.20;;;;;;;10.17;69.72;100167.47;5180280;28;20048;-68
2022/01/01 05:53:19;;;;;;;56.33;32.75;;;;;;;10.12;68.15;100154.53;5179360;28;20045;-68
2022/01/01 05:56:09;;;;;;;64.70;33.72;;;;;;;9.89;68.94;100153.56;5179541;28;20041;-68
2022/01/01 05:58:59;;;;;;;59.30;32.67;;;;;;;9.75;69.77;100159.03;5179918;28;20443;-68
2022/01/01 06:01:48;;;;;;;59.60;33.42;;;;;;;9.75;69.86;100174.06;5179718;28;20053;-68
2022/01/01 06:04:39;;;;;;;59.20;32.22;;;;;;;9.48;69.60;100176.88;5166864;28;20053;-68
2022/01/01 06:07:29;;;;;;;59.50;33.80;;;;;;;9.51;69.84;100174.03;5179592;28;20057;-68
2022/01/01 06:10:19;;;;;;;65.05;35.17;;;;;;;9.54;69.99;100182.59;5166105;28;20144;-68
2022/01/01 06:13:11;;;;;;;67.47;36.97;;;;;;;9.43;69.99;100179.00;5179150;28;20787;-68
2022/01/01 06:16:03;;;;;;;70.85;38.70;;;;;;;9.47;70.71;100185.75;5176172;28;20053;-68
2022/01/01 06:18:53;;;;;;;78.95;39.40;;;;;;;9.35;70.84;100183.03;5162936;28;20061;-68
2022/01/01 06:21:43;;;;;;;67.97;38.08;;;;;;;9.13;70.88;100174.88;5177996;28;20187;-68
2022/01/01 06:24:33;;;;;;;73.13;39.53;;;;;;;9.37;71.95;100189.06;5178902;28;20045;-68
2022/01/01 06:27:23;;;;;;;69.55;37.47;;;;;;;9.38;71.37;100198.69;5164523;28;20061;-67
2022/01/01 06:30:13;;;;;;;70.82;38.42;;;;;;;9.39;71.77;100196.88;5178092;28;20128;-68
2022/01/01 06:33:15;;;;;;;78.70;39.80;;;;;;;9.48;72.06;100179.53;5164689;28;20037;-68
2022/01/01 06:36:05;;;;;;;70.70;36.17;;;;;;;9.99;71.50;100204.09;5175440;28;20045;-68
2022/01/01 06:38:55;;;;;;;69.68;34.95;;;;;;;9.87;71.57;100208.47;5165977;28;20187;-68
2022/01/01 06:41:45;;;;;;;74.50;36.63;;;;;;;9.99;72.16;100211.19;5171871;28;20128;-68
2022/01/01 06:44:35;;;;;;;69.28;34.55;;;;;;;10.30;70.76;100208.06;5177859;28;20046;-68
2022/01/01 06:47:26;;;;;;;68.18;34.47;;;;;;;9.87;71.92;100195.25;5178132;28;20132;-68
2022/01/01 06:50:16;;;;;;;68.57;34.53;;;;;;;10.18;71.35;100198.31;5179619;28;20611;-68
2022/01/01 06:53:06;;;;;;;64.70;34.42;;;;;;;10.30;71.32;100212.53;5167485;28;20505;-68
2022/01/01 06:55:56;;;;;;;71.15;34.67;;;;;;;10.45;70.66;100200.78;5179576;28;20045;-68
2022/01/01 06:58:46;;;;;;;71.88;35.83;;;;;;;10.68;69.46;100204.38;5180572;28;20586;-68
2022/01/01 07:01:37;;;;;;;76.88;40.88;;;;;;;10.34;71.32;100180.34;5177868;28;20200;-68
2022/01/01 07:04:27;;;;;;;93.80;46.25;;;;;;;10.31;72.18;100204.44;5184131;28;20048;-68
2022/01/01 07:07:18;;;;;;;80.72;41.83;;;;;;;10.37;70.82;100205.81;5178511;28;20060;-68
2022/01/01 07:10:10;;;;;;;75.40;39.45;;;;;;;10.31;71.19;100196.50;5181363;28;20069;-68
2022/01/01 07:13:00;;;;;;;67.57;35.38;;;;;;;10.29;71.03;100210.81;5177266;28;20048;-68
2022/01/01 07:15:51;;;;;;;61.60;33.72;;;;;;;10.56;69.90;100214.09;5180101;28;20405;-68
2022/01/01 07:18:41;;;;;;;65.43;33.95;;;;;;;10.58;69.88;100206.00;5166120;28;20081;-66
2022/01/01 07:21:31;;;;;;;65.50;33.88;;;;;;;10.49;69.94;100181.00;5182030;28;20042;-67
2022/01/01 07:24:21;;;;;;;57.00;31.02;;;;;;;10.78;68.44;100200.06;5189054;28;20056;-67
2022/01/01 07:27:12;;;;;;;58.38;30.17;;;;;;;10.64;68.65;100202.91;5178143;28;20183;-70
2022/01/01 07:30:04;;;;;;;63.47;30.95;;;;;;;10.55;69.53;100200.94;5179608;28;20614;-69
2022/01/01 07:32:54;;;;;;;55.25;30.75;;;;;;;10.56;69.14;100189.34;5183115;28;20053;-68
2022/01/01 07:35:44;;;;;;;56.20;29.30;;;;;;;10.44;69.72;100198.25;5183015;28;21789;-70
2022/01/01 07:38:34;;;;;;;51.47;29.20;;;;;;;10.56;68.65;100197.31;5182179;28;20045;-70
2022/01/01 07:41:24;;;;;;;50.83;27.75;;;;;;;10.91;67.75;100180.56;5183365;28;20519;-70
2022/01/01 07:44:14;;;;;;;46.38;25.90;;;;;;;10.98;65.89;100164.03;5165567;28;20041;-70
2022/01/01 07:47:09;;;;;;;49.03;26.05;;;;;;;10.44;68.91;100185.00;5166536;28;20086;-70
2022/01/01 07:50:00;;;;;;;51.80;25.65;;;;;;;10.41;68.32;100180.75;5167865;28;20057;-67
2022/01/01 07:52:49;;;;;;;44.92;24.83;;;;;;;10.25;69.55;100188.94;5167506;28;20042;-70
2022/01/01 07:55:40;;;;;;;47.17;26.50;;;;;;;10.15;69.49;100189.75;5181491;28;20471;-71
2022/01/01 07:58:31;;;;;;;52.78;25.80;;;;;;;10.07;69.22;100185.84;5182879;28;20089;-68
2022/01/01 08:01:21;;;;;;;46.05;24.02;;;;;;;10.08;69.79;100200.78;5179658;28;20056;-72
2022/01/01 08:04:12;;;;;;;48.35;25.73;;;;;;;9.95;69.86;100189.38;5173835;28;20128;-69
2022/01/01 08:07:02;;;;;;;54.28;28.10;;;;;;;10.15;69.91;100201.19;5179135;28;20574;-69
2022/01/01 08:10:13;;;;;;;49.88;27.73;;;;;;;10.18;69.81;100192.16;5182664;28;20050;-71
2022/01/01 08:13:04;;;;;;;54.10;28.85;;;;;;;10.14;70.13;100191.56;5175690;28;20154;-70
2022/01/01 08:15:55;;;;;;;51.45;27.00;;;;;;;10.08;69.74;100206.09;5180424;28;20097;-69
2022/01/01 08:18:45;;;;;;;52.95;29.35;;;;;;;10.12;69.62;100193.44;5182040;28;20104;-68
2022/01/01 08:21:36;;;;;;;53.47;28.75;;;;;;;10.19;70.32;100192.03;5181886;28;20121;-67
2022/01/01 08:24:26;;;;;;;51.13;28.23;;;;;;;9.96;69.74;100167.22;5181593;28;20061;-66
2022/01/01 08:27:17;;;;;;;48.13;27.45;;;;;;;10.14;69.78;100202.16;5181530;28;20139;-71
2022/01/01 08:30:08;;;;;;;46.40;24.15;;;;;;;10.05;69.70;100193.06;5181505;28;20053;-69
2022/01/01 08:33:02;;;;;;;44.80;24.38;;;;;;;10.03;70.40;100199.41;5182772;28;20432;-68
2022/01/01 08:35:52;;;;;;;43.58;24.27;;;;;;;10.26;69.29;100201.25;5181529;28;20049;-66
2022/01/01 08:38:42;;;;;;;43.65;24.55;;;;;;;9.96;69.93;100201.66;5181502;28;20076;-70
2022/01/01 08:41:32;;;;;;;48.30;26.58;;;;;;;10.10;69.86;100212.13;5174614;28;20048;-69
2022/01/01 08:44:22;;;;;;;43.78;24.23;;;;;;;10.12;70.50;100219.97;5179684;28;20049;-70
2022/01/01 08:47:13;;;;;;;43.45;24.98;;;;;;;10.24;69.27;100221.72;5163191;28;20132;-67
2022/01/01 08:50:04;;;;;;;46.03;24.50;;;;;;;10.09;70.59;100236.06;5167124;28;20045;-68
2022/01/01 08:52:55;;;;;;;45.28;25.65;;;;;;;10.14;70.23;100238.41;5180860;28;20085;-70
2022/01/01 08:55:45;;;;;;;46.35;26.25;;;;;;;10.23;70.84;100228.00;5190422;28;20041;-69
2022/01/01 08:58:35;;;;;;;48.17;26.30;;;;;;;10.40;70.91;100239.19;5182520;28;20048;-69
2022/01/01 09:01:26;;;;;;;45.08;26.25;;;;;;;10.60;70.66;100240.41;5182868;28;20111;-69
2022/01/01 09:04:17;;;;;;;51.75;27.13;;;;;;;10.67;70.84;100244.28;5179153;28;20056;-69
2022/01/01 09:07:07;;;;;;;57.10;29.25;;;;;;;10.81;71.07;100244.09;5169006;28;20470;-65
2022/01/01 09:09:58;;;;;;;55.70;27.85;;;;;;;10.97;70.51;100238.47;5180682;28;20052;-64
2022/01/01 09:12:48;;;;;;;51.72;29.35;;;;;;;11.09;69.76;100237.53;5169893;28;20052;-68
2022/01/01 09:15:38;;;;;;;48.08;27.67;;;;;;;11.38;69.53;100229.16;5165368;28;20052;-66
2022/01/01 09:18:28;;;;;;;49.47;26.20;;;;;;;11.55;67.66;100228.69;5180427;28;20424;-66
2022/01/01 09:21:19;;;;;;;51.17;26.63;;;;;;;11.53;67.54;100231.47;5181344;28;21206;-68
2022/01/01 09:24:09;;;;;;;42.60;22.88;;;;;;;11.65;67.25;100242.94;5175224;28;20054;-68
2022/01/01 09:26:59;;;;;;;40.05;22.75;;;;;;;11.67;67.21;100243.66;5175833;28;20045;-68
2022/01/01 09:29:49;;;;;;;38.33;21.77;;;;;;;11.75;67.96;100241.28;5179119;28;20072;-69
2022/01/01 09:32:39;;;;;;;34.72;18.50;;;;;;;11.83;66.42;100224.72;5167175;28;20147;-68
2022/01/01 09:35:29;;;;;;;31.40;17.90;;;;;;;12.01;66.92;100238.38;5179259;28;20056;-68
2022/01/01 09:38:19;;;;;;;34.88;19.20;;;;;;;11.40;66.16;100135.13;5172241;28;20064;-65
2022/01/01 09:41:10;;;;;;;34.25;19.42;;;;;;;12.56;63.88;100262.31;5173269;28;20696;-69
2022/01/01 09:44:00;;;;;;;37.33;20.50;;;;;;;12.62;63.19;100256.50;5164994;28;20400;-69
2022/01/01 09:46:50;;;;;;;42.90;19.73;;;;;;;12.66;63.35;100260.59;5176123;28;20045;-70
2022/01/01 09:49:41;;;;;;;35.00;19.58;;;;;;;12.52;64.18;100259.06;5184635;28;20119;-72
2022/01/01 09:52:31;;;;;;;31.40;18.52;;;;;;;12.56;64.00;100259.66;5178742;28;20551;-68
2022/01/01 09:55:24;;;;;;;31.35;18.08;;;;;;;12.72;63.10;100259.25;5184609;28;20061;-67
2022/01/01 09:58:15;;;;;;;27.60;16.23;;;;;;;12.76;64.03;100261.53;5168398;28;20053;-67
2022/01/01 10:01:07;;;;;;;29.67;15.50;;;;;;;12.74;63.54;100222.69;5166576;28;20124;-68
2022/01/01 10:03:59;;;;;;;28.65;15.27;;;;;;;12.59;63.57;100246.13;5180308;28;20050;-70
2022/01/01 10:07:04;;;;;;;28.40;14.75;;;;;;;12.80;64.40;100240.81;5161810;28;20049;-67
2022/01/01 10:09:54;;;;;;;24.88;13.30;;;;;;;13.08;62.87;100234.06;5180023;28;20123;-67
2022/01/01 10:12:45;;;;;;;26.83;14.73;;;;;;;12.94;63.05;100236.03;5182005;28;20103;-68
2022/01/01 10:15:35;;;;;;;28.48;15.82;;;;;;;12.83;64.32;100233.44;5179692;28;20053;-70
2022/01/01 10:18:27;;;;;;;28.73;15.20;;;;;;;12.71;63.36;100223.78;5162643;28;20547;-71
2022/01/01 10:21:19;;;;;;;31.90;15.20;;;;;;;12.83;63.87;100220.13;5177417;28;20057;-69
2022/01/01 10:24:14;;;;;;;25.92;14.60;;;;;;;13.15;63.10;100212.09;5176026;28;20092;-69
2022/01/01 10:30:39;;;;;;;20.55;12.30;;;;;;;12.94;62.99;100213.88;5178940;28;20534;-68
2022/01/01 10:33:32;;;;;;;23.15;13.07;;;;;;;13.27;62.35;100226.19;5179971;28;20053;-68
2022/01/01 10:36:22;;;;;;;19.40;11.60;;;;;;;13.20;62.69;100218.84;5179677;28;20110;-65
2022/01/01 10:39:15;;;;;;;20.77;11.82;;;;;;;13.55;61.63;100219.34;5162259;28;20049;-68
2022/01/01 10:42:12;;;;;;;18.90;11.80;;;;;;;13.70;61.96;100206.50;5190002;28;20078;-67
2022/01/01 10:45:02;;;;;;;20.55;11.80;;;;;;;13.11;62.67;100184.03;5182995;28;20139;-67
2022/01/01 10:48:14;;;;;;;20.20;11.88;;;;;;;13.30;62.73;100198.47;5175510;28;20082;-67
2022/01/01 10:51:09;;;;;;;19.13;11.75;;;;;;;13.14;62.25;100183.78;5174650;28;20440;-67
2022/01/01 10:54:01;;;;;;;21.23;12.27;;;;;;;13.33;63.14;100193.72;5173975;28;20136;-68
2022/01/01 10:56:52;;;;;;;22.08;11.32;;;;;;;13.48;61.74;100190.72;5169713;28;20050;-68
2022/01/01 10:59:43;;;;;;;20.10;11.43;;;;;;;13.39;63.32;100187.00;5177046;28;20129;-67
2022/01/01 11:02:34;;;;;;;17.80;11.15;;;;;;;13.67;62.46;100173.94;5177744;28;20065;-68
2022/01/01 11:05:30;;;;;;;19.33;11.55;;;;;;;13.72;62.05;100169.91;5175578;28;20515;-67
2022/01/01 11:08:20;;;;;;;18.60;10.10;;;;;;;13.54;61.22;100169.72;5182232;28;20107;-68
2022/01/01 11:11:13;;;;;;;16.90;10.00;;;;;;;13.96;61.03;100174.88;5187443;28;20050;-69
2022/01/01 11:14:05;;;;;;;16.85;9.30;;;;;;;13.99;60.82;100165.75;5178979;28;20074;-68
2022/01/01 11:16:56;;;;;;;17.02;9.77;;;;;;;14.11;60.76;100162.00;5181329;28;20038;-68
2022/01/01 11:19:49;;;;;;;15.13;8.87;;;;;;;14.10;60.61;100162.97;5192165;28;20151;-68
2022/01/01 11:22:41;;;;;;;16.42;9.23;;;;;;;14.19;60.17;100147.97;5181235;28;20424;-69
2022/01/01 11:25:33;;;;;;;17.45;9.73;;;;;;;14.51;59.47;100153.91;5182782;28;20553;-69
2022/01/01 11:28:26;;;;;;;14.73;9.00;;;;;;;14.49;59.15;100150.50;5180203;28;20133;-68
2022/01/01 11:31:19;;;;;;;14.52;9.02;;;;;;;14.47;60.19;100144.47;5177456;28;20046;-69
2022/01/01 11:34:12;;;;;;;16.25;8.15;;;;;;;14.54;59.13;100131.44;5183307;28;20057;-68
2022/01/01 11:37:02;;;;;;;13.98;8.57;;;;;;;14.52;60.17;100138.75;5171495;28;20041;-68
2022/01/01 11:39:55;;;;;;;15.23;7.70;;;;;;;14.64;59.48;100136.78;5181221;28;20052;-69
2022/01/01 11:42:46;;;;;;;15.07;8.25;;;;;;;14.76;59.51;100130.28;5182168;28;20064;-68
2022/01/01 11:45:41;;;;;;;14.30;7.47;;;;;;;15.01;57.99;100132.34;5182735;28;20127;-68
2022/01/01 11:48:33;;;;;;;12.00;7.07;;;;;;;14.83;58.77;100136.72;5178063;28;20049;-68
2022/01/01 11:51:35;;;;;;;13.82;8.32;;;;;;;14.78;57.84;100131.84;5180767;28;20052;-68
2022/01/01 11:54:39;;;;;;;12.82;6.80;;;;;;;14.85;58.26;100126.75;5184034;28;20171;-68
2022/01/01 11:57:30;;;;;;;12.88;6.85;;;;;;;14.86;58.10;100130.28;5166839;28;20049;-68
2022/01/01 12:00:22;;;;;;;11.45;6.55;;;;;;;14.78;58.74;100117.66;5180196;28;20121;-68
2022/01/01 12:03:13;;;;;;;12.05;7.13;;;;;;;14.90;58.79;100120.97;5181236;28;20053;-68
2022/01/01 12:06:04;;;;;;;11.65;6.85;;;;;;;14.90;58.98;100111.16;5174511;28;20180;-68
2022/01/01 12:08:54;;;;;;;12.88;7.25;;;;;;;14.83;59.41;100107.34;5182347;28;20112;-71
2022/01/01 12:11:53;;;;;;;11.50;6.75;;;;;;;14.98;58.20;100108.59;5162696;28;20575;-70
2022/01/01 12:14:44;;;;;;;13.13;6.85;;;;;;;14.96;57.50;100099.88;5183276;28;20092;-68
2022/01/01 12:17:48;;;;;;;11.55;6.47;;;;;;;14.91;58.31;100083.47;5182842;28;20041;-68
2022/01/01 12:20:51;;;;;;;14.65;6.65;;;;;;;15.25;57.52;100090.94;5185251;28;20586;-68
2022/01/01 12:23:48;;;;;;;13.68;6.80;;;;;;;14.94;57.88;100085.00;5167470;28;20588;-69
2022/01/01 12:26:38;;;;;;;12.70;6.80;;;;;;;14.84;58.19;100074.34;5176826;28;20054;-68
2022/01/01 12:29:28;;;;;;;10.05;6.13;;;;;;;15.07;57.65;100076.69;5177776;28;20061;-68
2022/01/01 12:32:36;;;;;;;10.43;6.20;;;;;;;15.08;57.98;100078.34;5177996;28;20531;-69
2022/01/01 12:35:46;;;;;;;8.25;5.10;;;;;;;15.04;56.73;100077.81;5184247;28;20076;-69
2022/01/01 12:38:39;;;;;;;9.48;5.32;;;;;;;15.06;57.59;100048.25;5174548;28;20127;-68
2022/01/01 12:41:31;;;;;;;10.60;5.80;;;;;;;15.07;56.88;100074.00;5186101;28;20057;-69
2022/01/01 12:44:23;;;;;;;8.73;5.70;;;;;;;15.21;57.35;100065.50;5187095;28;20060;-68
2022/01/01 12:47:16;;;;;;;9.27;5.53;;;;;;;15.44;56.14;100065.97;5166031;28;20132;-69
2022/01/01 12:50:07;;;;;;;12.73;5.88;;;;;;;15.39;56.84;100066.38;5181630;28;20085;-68
2022/01/01 12:53:00;;;;;;;9.38;5.55;;;;;;;15.22;56.74;100065.34;5178044;28;20057;-69
2022/01/01 12:56:27;;;;;;;8.13;4.82;;;;;;;15.33;57.10;100064.34;5172760;28;20135;-69
2022/01/01 12:59:17;;;;;;;9.27;4.93;;;;;;;15.35;56.95;100048.97;5113801;28;20081;-69
2022/01/01 13:02:08;;;;;;;8.20;5.22;;;;;;;15.38;57.49;100045.16;5174728;28;20120;-68
2022/01/01 13:05:01;;;;;;;10.65;5.05;;;;;;;15.36;57.10;100034.63;5165973;28;20061;-68
2022/01/01 13:07:51;;;;;;;11.70;5.28;;;;;;;15.30;57.32;100045.91;5180373;28;20049;-68
2022/01/01 13:10:43;;;;;;;9.40;5.10;;;;;;;14.98;57.50;100007.13;5173480;28;20512;-71